Terminal Aerodrome Forecast
Issued by NWS Chicago, IL

Home | Current Version | Previous Version | Text Only | Print | Product List | Glossary Off
Versions: 1 2 3 4 5 6 7 8 9 10 11 12 13 14 15 16 17 18 19 20 21 22 23 24

000
FTUS43 KLOT 262328
TAFRFD
TAF
KRFD 262328Z 2700/2724 22005KT P6SM FEW040 BKN250
     FM270200 VRB03KT P6SM BKN250
     FM270800 00000KT 4SM BR BCFG BKN250
     FM271500 19011KT P6SM SCT040 BKN250=

USA.gov is the U.S. government's official web portal to all federal, state and local government web resources and services.